Time;durP1;ratioP1;P1;durP2;ratioP2;P2;SDS_P1;SDS_P2;PMS_P1;PMS_P2;Temp;Humidity;BMP_temperature;BMP_pressure;BME280_temperature;BME280_humidity;BME280_pressure;Samples;Min_cycle;Max_cycle;Signal;HPM_P1;HPM_P2
2023/04/03 00:01:40;;;;;;;0.80;0.80;;;;;;;13.00;93.34;99516.06;5050556;28;20195;-73
2023/04/03 00:04:07;;;;;;;0.70;0.70;;;;;;;13.05;93.31;99514.31;5050241;28;20681;-73
2023/04/03 00:06:34;;;;;;;0.70;0.70;;;;;;;13.05;93.51;99519.53;5050198;28;20195;-73
2023/04/03 00:09:01;;;;;;;0.70;0.70;;;;;;;12.99;94.26;99516.91;5050226;28;20210;-72
2023/04/03 00:11:28;;;;;;;0.80;0.80;;;;;;;13.01;93.67;99515.19;5049973;28;20196;-73
2023/04/03 00:13:56;;;;;;;0.70;0.70;;;;;;;13.09;93.84;99516.03;5049747;28;20211;-73
2023/04/03 00:16:23;;;;;;;0.70;0.70;;;;;;;12.97;93.59;99510.00;5034522;28;20200;-74
2023/04/03 00:18:50;;;;;;;0.50;0.50;;;;;;;12.96;93.79;99509.13;5053946;28;20214;-72
2023/04/03 00:21:17;;;;;;;0.80;0.80;;;;;;;12.87;95.04;99515.25;5053749;28;20211;-73
2023/04/03 00:23:44;;;;;;;0.80;0.80;;;;;;;12.75;95.83;99514.41;5054129;28;20196;-72
2023/04/03 00:26:10;;;;;;;0.80;0.80;;;;;;;12.82;95.46;99510.91;5053703;28;20674;-73
2023/04/03 00:28:37;;;;;;;0.63;0.63;;;;;;;12.83;95.97;99518.72;5053889;28;20220;-74
2023/04/03 00:31:05;;;;;;;0.82;0.82;;;;;;;12.79;97.76;99513.53;5054007;28;20690;-72
2023/04/03 00:33:32;;;;;;;0.80;0.80;;;;;;;12.72;98.95;99511.81;5053763;28;20685;-73
2023/04/03 00:35:59;;;;;;;0.60;0.60;;;;;;;12.72;99.04;99506.63;5053050;28;20200;-73
2023/04/03 00:38:26;;;;;;;0.68;0.68;;;;;;;12.62;100.00;99492.78;5053732;28;20215;-74
2023/04/03 00:40:53;;;;;;;0.70;0.70;;;;;;;12.70;100.00;99500.56;5053093;28;20251;-73
2023/04/03 00:43:21;;;;;;;0.80;0.80;;;;;;;12.73;99.65;99490.16;5053797;28;20203;-73
2023/04/03 00:45:49;;;;;;;0.60;0.60;;;;;;;12.62;99.70;99478.91;5053701;28;20651;-73
2023/04/03 00:48:21;;;;;;;0.70;0.70;;;;;;;12.77;100.00;99499.69;5052864;28;20216;-73
2023/04/03 00:50:49;;;;;;;0.80;0.80;;;;;;;12.73;100.00;99505.75;5053462;28;20325;-74
2023/04/03 00:53:20;;;;;;;0.70;0.70;;;;;;;12.74;100.00;99503.13;5053331;28;20745;-74
2023/04/03 00:55:49;;;;;;;0.70;0.70;;;;;;;12.66;100.00;99499.72;5052860;28;20203;-73
2023/04/03 00:58:18;;;;;;;0.90;0.90;;;;;;;12.71;100.00;99512.69;5034228;28;20198;-73
2023/04/03 01:00:53;;;;;;;0.80;0.80;;;;;;;12.72;100.00;99504.00;5053014;28;20705;-74
2023/04/03 01:03:21;;;;;;;0.65;0.65;;;;;;;12.66;100.00;99504.03;5052975;28;20210;-74
2023/04/03 01:05:48;;;;;;;0.77;0.77;;;;;;;12.66;100.00;99498.84;5053287;28;20207;-74
2023/04/03 01:08:15;;;;;;;0.70;0.70;;;;;;;12.66;100.00;99498.84;5052443;28;20227;-73
2023/04/03 01:10:42;;;;;;;0.50;0.50;;;;;;;12.62;100.00;99508.38;5052663;28;20191;-74
2023/04/03 01:13:20;;;;;;;0.70;0.70;;;;;;;12.70;100.00;99482.38;5018069;28;20206;-74
2023/04/03 01:15:47;;;;;;;0.70;0.70;;;;;;;12.68;100.00;99508.34;5053299;28;20696;-74
2023/04/03 01:18:14;;;;;;;0.80;0.80;;;;;;;12.58;100.00;99488.44;5052662;28;20291;-73
2023/04/03 01:21:13;;;;;;;0.80;0.80;;;;;;;12.79;100.00;99505.72;5052873;28;20682;-73
2023/04/03 01:24:08;;;;;;;0.70;0.70;;;;;;;12.72;100.00;99504.00;5052261;28;20208;-73
2023/04/03 01:26:35;;;;;;;0.80;0.80;;;;;;;12.58;100.00;99487.59;4971363;28;20217;-73
2023/04/03 01:29:02;;;;;;;0.75;0.75;;;;;;;12.51;100.00;99486.75;4971510;28;20245;-74
2023/04/03 01:31:34;;;;;;;0.60;0.60;;;;;;;12.62;100.00;99486.72;4952599;29;20206;-73
2023/04/03 01:34:03;;;;;;;0.75;0.75;;;;;;;12.52;100.00;99495.41;4956621;28;20201;-73
2023/04/03 01:36:32;;;;;;;0.65;0.65;;;;;;;12.26;100.00;99452.13;4956266;28;20201;-74
2023/04/03 01:39:00;;;;;;;0.80;0.80;;;;;;;12.46;100.00;99493.66;4971791;28;20209;-74
2023/04/03 01:41:27;;;;;;;1.55;1.00;;;;;;;12.42;100.00;99498.00;4971780;28;20601;-74
2023/04/03 01:43:54;;;;;;;0.80;0.80;;;;;;;12.43;100.00;99493.69;4971659;28;20209;-73
2023/04/03 01:46:22;;;;;;;0.80;0.80;;;;;;;12.39;100.00;99500.63;4971646;28;20210;-73
2023/04/03 01:48:49;;;;;;;0.70;0.70;;;;;;;12.36;100.00;99495.44;4970918;28;20693;-73
2023/04/03 01:51:17;;;;;;;0.70;0.70;;;;;;;12.00;100.00;99447.81;4971423;28;20213;-73
2023/04/03 01:53:44;;;;;;;0.70;0.70;;;;;;;12.21;100.00;99499.78;4971482;28;20705;-74
2023/04/03 01:56:11;;;;;;;0.70;0.70;;;;;;;12.22;100.00;99497.19;4971491;28;20200;-74
2023/04/03 01:58:38;;;;;;;0.95;0.95;;;;;;;12.06;100.00;99464.28;4971031;28;20210;-74
2023/04/03 02:01:05;;;;;;;0.80;0.80;;;;;;;12.17;100.00;99498.91;4939241;28;20237;-73
2023/04/03 02:03:32;;;;;;;0.70;0.70;;;;;;;12.19;100.00;99501.53;5009509;28;20298;-72
2023/04/03 02:06:00;;;;;;;0.70;0.70;;;;;;;12.14;100.00;99503.25;5051988;28;20207;-73
2023/04/03 02:08:28;;;;;;;0.85;0.85;;;;;;;12.17;100.00;99498.91;5033393;28;20220;-73
2023/04/03 02:10:55;;;;;;;0.80;0.80;;;;;;;12.22;100.00;99522.31;5051758;28;20192;-74
2023/04/03 02:13:22;;;;;;;0.70;0.70;;;;;;;11.92;100.00;99466.00;5052047;28;20244;-73
2023/04/03 02:15:48;;;;;;;0.50;0.50;;;;;;;12.15;100.00;99516.25;5052231;28;20199;-74
2023/04/03 02:18:15;;;;;;;0.70;0.70;;;;;;;12.06;100.00;99500.66;5051965;28;20264;-73
2023/04/03 02:20:42;;;;;;;0.70;0.70;;;;;;;12.24;100.00;99525.75;5052083;28;20191;-73
2023/04/03 02:23:09;;;;;;;0.70;0.70;;;;;;;12.20;100.00;99524.88;5051555;28;20214;-73
2023/04/03 02:25:37;;;;;;;0.80;0.80;;;;;;;12.22;100.00;99517.97;5051543;28;20207;-74
2023/04/03 02:28:05;;;;;;;0.73;0.73;;;;;;;12.25;100.00;99525.78;5051474;28;20223;-74
2023/04/03 02:30:31;;;;;;;0.90;0.90;;;;;;;12.21;100.00;99531.84;5016528;28;20203;-74
2023/04/03 02:32:58;;;;;;;0.88;0.88;;;;;;;12.01;100.00;99492.00;5051552;28;20680;-74
2023/04/03 02:35:25;;;;;;;0.80;0.80;;;;;;;12.21;100.00;99525.75;5052006;28;20206;-74
2023/04/03 02:37:52;;;;;;;0.70;0.70;;;;;;;11.93;100.00;99467.75;5051363;28;20203;-74
2023/04/03 02:40:19;;;;;;;0.75;0.75;;;;;;;12.24;100.00;99524.03;5050619;28;20672;-74
2023/04/03 02:42:47;;;;;;;0.65;0.65;;;;;;;12.23;100.00;99535.31;5035333;28;20195;-75
2023/04/03 02:45:14;;;;;;;0.80;0.80;;;;;;;12.12;100.00;99520.59;5051852;28;20211;-73
2023/04/03 02:47:40;;;;;;;0.88;0.88;;;;;;;12.19;100.00;99533.56;5051016;28;20219;-73
2023/04/03 02:50:08;;;;;;;0.70;0.70;;;;;;;12.03;100.00;99515.38;5051492;28;20200;-74
2023/04/03 02:52:35;;;;;;;0.80;0.80;;;;;;;11.79;100.00;99487.66;5037462;28;20608;-73
2023/04/03 02:55:03;;;;;;;0.80;0.80;;;;;;;12.03;100.00;99537.03;5042931;28;20212;-74
2023/04/03 02:57:30;;;;;;;0.80;0.80;;;;;;;12.02;100.00;99545.69;5050368;28;20582;-74
2023/04/03 02:59:58;;;;;;;0.80;0.80;;;;;;;12.11;100.00;99550.03;5051121;28;20223;-74
2023/04/03 03:02:25;;;;;;;0.80;0.80;;;;;;;12.02;100.00;99556.06;5051318;28;20195;-74
2023/04/03 03:04:51;;;;;;;0.70;0.70;;;;;;;11.99;100.00;99557.81;5051107;28;20214;-74
2023/04/03 03:07:18;;;;;;;0.80;0.80;;;;;;;11.82;100.00;99537.00;5050297;28;20195;-73
2023/04/03 03:09:45;;;;;;;0.70;0.70;;;;;;;12.00;100.00;99560.41;5050881;28;20196;-74
2023/04/03 03:12:12;;;;;;;0.80;0.80;;;;;;;11.97;100.00;99560.41;5050300;28;20226;-74
2023/04/03 03:14:38;;;;;;;0.77;0.77;;;;;;;11.96;100.00;99555.19;5051147;28;20199;-73
2023/04/03 03:17:07;;;;;;;0.70;0.70;;;;;;;12.01;100.00;99540.50;5050979;28;20211;-73
2023/04/03 03:19:33;;;;;;;0.60;0.60;;;;;;;12.03;100.00;99560.41;5015614;28;20195;-73
2023/04/03 03:22:00;;;;;;;0.70;0.70;;;;;;;12.05;100.00;99555.22;5050649;28;20200;-74
2023/04/03 03:24:27;;;;;;;0.90;0.90;;;;;;;11.96;100.00;99532.69;5051118;28;20253;-73
2023/04/03 03:26:54;;;;;;;0.80;0.80;;;;;;;11.89;100.00;99528.34;5050826;28;20211;-73
2023/04/03 03:29:21;;;;;;;0.70;0.70;;;;;;;11.84;100.00;99515.34;5050746;28;20219;-74
2023/04/03 03:31:47;;;;;;;0.70;0.70;;;;;;;11.98;100.00;99543.97;5050705;28;20206;-73
2023/04/03 03:34:16;;;;;;;0.73;0.73;;;;;;;11.96;100.00;99540.50;5050581;28;20203;-74
2023/04/03 03:36:43;;;;;;;0.70;0.70;;;;;;;11.82;100.00;99524.03;5031770;28;20200;-74
2023/04/03 03:39:10;;;;;;;0.60;0.60;;;;;;;11.85;100.00;99542.22;5050908;28;20200;-74
2023/04/03 03:41:36;;;;;;;0.90;0.90;;;;;;;11.32;100.00;99472.84;5050657;28;20756;-73
2023/04/03 03:44:03;;;;;;;0.80;0.80;;;;;;;11.74;100.00;99533.53;5050871;28;20226;-73
2023/04/03 03:46:30;;;;;;;0.77;0.77;;;;;;;11.58;100.00;99510.97;5050852;28;20223;-74
2023/04/03 03:48:57;;;;;;;0.80;0.80;;;;;;;11.69;100.00;99536.09;5050432;28;20226;-73
2023/04/03 03:51:25;;;;;;;0.80;0.80;;;;;;;11.70;100.00;99508.41;5053748;28;20199;-73
2023/04/03 03:53:52;;;;;;;0.77;0.77;;;;;;;11.52;100.00;99514.44;5052364;28;20667;-73
2023/04/03 03:56:20;;;;;;;0.80;0.80;;;;;;;11.58;100.00;99503.19;5053776;28;20204;-73
2023/04/03 03:58:47;;;;;;;0.80;0.80;;;;;;;11.64;100.00;99531.75;5035367;28;20677;-75
2023/04/03 04:01:13;;;;;;;0.88;0.88;;;;;;;11.60;100.00;99524.81;5053888;28;20204;-73
2023/04/03 04:03:40;;;;;;;0.60;0.60;;;;;;;11.57;100.00;99524.81;5053664;28;20196;-75
2023/04/03 04:06:07;;;;;;;0.80;0.80;;;;;;;11.57;100.00;99515.31;5054048;28;20208;-74
2023/04/03 04:08:35;;;;;;;0.70;0.70;;;;;;;11.60;100.00;99523.09;5053806;28;20294;-75
2023/04/03 04:11:02;;;;;;;1.48;1.33;;;;;;;11.49;100.00;99522.19;5053846;28;20203;-74
2023/04/03 04:13:29;;;;;;;0.70;0.70;;;;;;;11.41;100.00;99524.78;5053199;28;20203;-73
2023/04/03 04:15:56;;;;;;;1.00;1.00;;;;;;;11.49;100.00;99530.00;5033883;28;20639;-74
2023/04/03 04:18:23;;;;;;;0.70;0.70;;;;;;;11.01;100.00;99465.00;5034127;28;20689;-74
2023/04/03 04:20:50;;;;;;;0.70;0.70;;;;;;;11.38;100.00;99540.34;5054492;28;20206;-73
2023/04/03 04:23:18;;;;;;;1.00;1.00;;;;;;;11.40;100.00;99554.22;5054266;28;20215;-73
2023/04/03 04:25:47;;;;;;;0.70;0.70;;;;;;;10.77;100.00;99466.63;5054135;28;20208;-73
2023/04/03 04:28:13;;;;;;;0.70;0.70;;;;;;;11.20;100.00;99550.66;5054301;28;20637;-75
2023/04/03 04:30:40;;;;;;;0.80;0.80;;;;;;;11.05;100.00;99534.19;5054337;28;20203;-76
2023/04/03 04:33:07;;;;;;;0.75;0.75;;;;;;;11.49;100.00;99534.31;5053994;28;20218;-74
2023/04/03 04:35:34;;;;;;;0.70;0.70;;;;;;;11.41;100.00;99524.78;5053242;28;20686;-75
2023/04/03 04:38:02;;;;;;;0.70;0.70;;;;;;;11.80;100.00;99550.03;5054004;28;20191;-73
2023/04/03 04:40:29;;;;;;;0.73;0.73;;;;;;;12.43;100.00;99533.56;5053989;28;20207;-74
2023/04/03 04:42:57;;;;;;;0.70;0.70;;;;;;;13.16;100.00;99520.34;5054059;28;20195;-74
2023/04/03 04:45:24;;;;;;;0.70;0.70;;;;;;;13.58;97.10;99521.88;5052092;28;20215;-75
2023/04/03 04:47:52;;;;;;;0.98;0.98;;;;;;;14.06;92.22;99546.72;5053268;28;20202;-75
2023/04/03 04:50:19;;;;;;;0.60;0.60;;;;;;;14.22;90.77;99547.47;5052824;28;20231;-75
2023/04/03 04:52:46;;;;;;;0.70;0.70;;;;;;;14.43;88.58;99536.00;5053351;28;20192;-79
2023/04/03 04:55:13;;;;;;;0.80;0.80;;;;;;;14.53;88.56;99553.31;5052864;28;20659;-73
2023/04/03 04:57:40;;;;;;;0.60;0.60;;;;;;;14.21;89.96;99530.97;5052599;28;20198;-74
2023/04/03 05:00:09;;;;;;;1.08;1.08;;;;;;;14.31;90.32;99563.91;5052731;28;20241;-74
2023/04/03 05:02:36;;;;;;;1.55;1.55;;;;;;;14.71;91.17;99569.66;5047808;28;20218;-74
2023/04/03 05:05:03;;;;;;;0.70;0.70;;;;;;;15.14;92.43;99570.06;5054456;28;20646;-77
2023/04/03 05:07:30;;;;;;;0.90;0.90;;;;;;;14.90;85.90;99494.63;5055850;28;20218;-75
2023/04/03 05:09:57;;;;;;;0.63;0.63;;;;;;;15.80;82.99;99577.94;5054417;28;20645;-74
2023/04/03 05:12:24;;;;;;;0.60;0.60;;;;;;;15.56;80.44;99563.44;5053457;28;20654;-76
2023/04/03 05:14:50;;;;;;;0.60;0.60;;;;;;;15.49;81.06;99576.63;5017658;28;20214;-75
2023/04/03 05:17:19;;;;;;;0.65;0.65;;;;;;;15.53;80.62;99584.41;5053280;28;20195;-74
2023/04/03 05:19:45;;;;;;;0.60;0.60;;;;;;;15.32;80.39;99585.50;5053020;28;20207;-76
2023/04/03 05:22:12;;;;;;;0.70;0.70;;;;;;;15.11;82.42;99579.66;5052521;28;20211;-75
2023/04/03 05:24:39;;;;;;;1.02;1.02;;;;;;;15.19;82.18;99599.59;5053225;28;20219;-75
2023/04/03 05:27:06;;;;;;;0.70;0.70;;;;;;;14.51;86.83;99586.38;5041547;28;20214;-76
2023/04/03 05:29:33;;;;;;;0.70;0.70;;;;;;;14.63;88.23;99610.59;5053105;28;20231;-75
2023/04/03 05:31:59;;;;;;;0.70;0.70;;;;;;;13.98;91.49;99605.88;5052948;28;20192;-74
2023/04/03 05:34:28;;;;;;;0.70;0.70;;;;;;;13.78;96.53;99605.13;5043616;28;20313;-74
2023/04/03 05:36:54;;;;;;;0.65;0.65;;;;;;;13.51;100.00;99602.66;5052646;28;20207;-75
2023/04/03 05:39:22;;;;;;;0.50;0.50;;;;;;;13.18;100.00;99588.03;5052749;28;20694;-77
2023/04/03 05:41:49;;;;;;;1.15;1.15;;;;;;;13.19;100.00;99614.06;5052123;28;20203;-75
2023/04/03 05:44:16;;;;;;;0.80;0.80;;;;;;;13.03;100.00;99612.31;5052360;28;20573;-75
2023/04/03 05:46:43;;;;;;;0.50;0.50;;;;;;;12.93;100.00;99618.44;5052813;28;20208;-78
2023/04/03 05:49:10;;;;;;;0.60;0.60;;;;;;;13.13;100.00;99619.28;5052400;28;20223;-71
2023/04/03 05:51:38;;;;;;;0.70;0.70;;;;;;;13.08;100.00;99620.13;5052424;28;20204;-76
2023/04/03 05:54:11;;;;;;;0.70;0.70;;;;;;;12.55;100.00;99539.59;5051957;28;20215;-77
2023/04/03 05:56:37;;;;;;;0.77;0.77;;;;;;;12.81;100.00;99611.50;5052183;28;20226;-76
2023/04/03 05:59:04;;;;;;;0.82;0.82;;;;;;;12.90;100.00;99598.50;5051912;28;20205;-75
2023/04/03 06:01:31;;;;;;;0.68;0.68;;;;;;;13.00;100.00;99612.34;5052249;28;20203;-76
2023/04/03 06:03:58;;;;;;;0.70;0.70;;;;;;;13.06;100.00;99611.44;5052273;28;20717;-76
2023/04/03 06:06:25;;;;;;;1.75;1.00;;;;;;;13.32;100.00;99643.53;5052039;28;20333;-74
2023/04/03 06:08:54;;;;;;;0.82;0.82;;;;;;;13.53;100.00;99648.66;5033517;28;20227;-76
2023/04/03 06:11:21;;;;;;;0.70;0.70;;;;;;;13.62;100.00;99652.97;5017088;28;20290;-76
2023/04/03 06:13:48;;;;;;;0.70;0.70;;;;;;;13.65;100.00;99650.34;5051808;28;20217;-75
2023/04/03 06:16:17;;;;;;;0.70;0.70;;;;;;;13.67;100.00;99645.97;5033309;28;20203;-76
2023/04/03 06:18:44;;;;;;;0.70;0.70;;;;;;;13.43;100.00;99620.03;5043958;28;20208;-77
2023/04/03 06:21:11;;;;;;;0.80;0.80;;;;;;;13.52;100.00;99646.06;5058192;28;20710;-77
2023/04/03 06:23:38;;;;;;;0.60;0.60;;;;;;;13.76;100.00;99640.75;5051428;28;20203;-76
2023/04/03 06:26:06;;;;;;;0.70;0.70;;;;;;;14.07;100.00;99625.78;5051838;28;20208;-77
2023/04/03 06:28:33;;;;;;;1.33;1.33;;;;;;;14.08;97.09;99628.41;5047139;28;20207;-76
2023/04/03 06:31:00;;;;;;;0.73;0.73;;;;;;;13.84;98.04;99639.81;5051433;28;20196;-75
2023/04/03 06:33:27;;;;;;;0.70;0.70;;;;;;;13.89;96.82;99622.44;5051234;28;20218;-76
2023/04/03 06:35:57;;;;;;;0.70;0.70;;;;;;;14.04;96.25;99642.31;5051564;28;20203;-76
2023/04/03 06:38:24;;;;;;;0.70;0.70;;;;;;;13.80;97.05;99635.53;5051518;28;20212;-76
2023/04/03 06:40:52;;;;;;;0.70;0.70;;;;;;;13.75;99.45;99644.22;5051287;28;20294;-76
2023/04/03 06:43:20;;;;;;;0.70;0.70;;;;;;;13.99;97.62;99641.47;5032683;28;20584;-74
2023/04/03 06:45:47;;;;;;;0.80;0.80;;;;;;;13.90;97.90;99618.09;5050220;28;20238;-75
2023/04/03 06:48:14;;;;;;;0.60;0.60;;;;;;;13.83;98.33;99638.09;5045335;28;20600;-76
2023/04/03 06:50:41;;;;;;;0.70;0.70;;;;;;;13.98;98.25;99613.69;5050299;28;20613;-77
2023/04/03 06:53:08;;;;;;;0.75;0.75;;;;;;;14.39;95.89;99645.59;5049872;28;20234;-77
2023/04/03 06:55:35;;;;;;;0.70;0.70;;;;;;;14.11;96.69;99633.59;5050021;28;20211;-77
2023/04/03 06:58:03;;;;;;;0.90;0.90;;;;;;;14.26;100.00;99638.72;5044129;28;20210;-73
2023/04/03 07:00:31;;;;;;;0.60;0.60;;;;;;;14.23;98.16;99638.69;5049386;28;20231;-74
2023/04/03 07:02:58;;;;;;;0.70;0.70;;;;;;;14.44;96.95;99644.69;5046328;28;20203;-74
2023/04/03 07:05:25;;;;;;;0.70;0.70;;;;;;;14.60;94.96;99641.06;5049676;28;20203;-75
2023/04/03 07:07:53;;;;;;;0.80;0.80;;;;;;;14.46;93.98;99642.94;5049295;28;20195;-75
2023/04/03 07:10:20;;;;;;;0.70;0.70;;;;;;;14.67;94.28;99634.91;5049121;28;20219;-75
2023/04/03 07:12:47;;;;;;;0.70;0.70;;;;;;;14.86;92.65;99618.22;5049587;28;20658;-74
2023/04/03 07:15:14;;;;;;;0.68;0.68;;;;;;;14.92;91.64;99643.38;5029957;28;20702;-74
2023/04/03 07:17:42;;;;;;;0.80;0.80;;;;;;;14.89;92.19;99646.91;5049757;28;20196;-74
2023/04/03 07:20:10;;;;;;;0.80;0.80;;;;;;;14.68;91.71;99621.00;5049956;28;20203;-74
2023/04/03 07:22:37;;;;;;;0.80;0.80;;;;;;;14.75;92.46;99638.34;5050189;28;20251;-74
2023/04/03 07:25:06;;;;;;;0.65;0.65;;;;;;;15.05;91.91;99661.56;5048894;28;20203;-74
2023/04/03 07:27:35;;;;;;;0.70;0.70;;;;;;;14.76;89.31;99606.16;5050052;28;20202;-74
2023/04/03 07:30:02;;;;;;;0.70;0.70;;;;;;;14.31;89.89;99557.81;5049859;28;20255;-74
2023/04/03 07:32:29;;;;;;;1.25;1.25;;;;;;;14.67;89.90;99627.97;5050217;28;20206;-75
2023/04/03 07:34:57;;;;;;;1.27;1.27;;;;;;;14.82;90.69;99655.66;5050270;28;20199;-74
2023/04/03 07:37:24;;;;;;;0.70;0.70;;;;;;;14.85;90.78;99637.38;5050233;28;20195;-75
2023/04/03 07:39:51;;;;;;;0.93;0.93;;;;;;;15.11;88.63;99664.09;5014824;28;20695;-74
2023/04/03 07:42:17;;;;;;;0.93;0.93;;;;;;;15.15;89.49;99663.19;5044133;28;20641;-75
2023/04/03 07:44:44;;;;;;;0.70;0.70;;;;;;;14.93;89.33;99593.78;5050030;28;20202;-74
2023/04/03 07:47:13;;;;;;;0.80;0.80;;;;;;;15.62;87.53;99661.84;5049865;28;20203;-74
2023/04/03 07:49:40;;;;;;;0.80;0.80;;;;;;;15.76;85.60;99666.00;5031172;28;20262;-75
2023/04/03 07:52:09;;;;;;;0.70;0.70;;;;;;;15.85;84.36;99670.22;5049935;28;20196;-74
2023/04/03 07:54:36;;;;;;;0.70;0.70;;;;;;;16.21;82.92;99674.97;5050149;28;20204;-73
2023/04/03 07:57:03;;;;;;;1.50;1.50;;;;;;;16.20;81.91;99691.53;5050364;28;20211;-73
2023/04/03 07:59:30;;;;;;;0.80;0.80;;;;;;;16.35;79.35;99687.84;5050368;28;20706;-74
2023/04/03 08:01:57;;;;;;;0.93;0.93;;;;;;;16.35;78.86;99688.72;5050603;28;20210;-77
2023/04/03 08:04:24;;;;;;;0.80;0.80;;;;;;;16.53;77.05;99694.56;5047667;28;20204;-75
2023/04/03 08:06:51;;;;;;;0.70;0.70;;;;;;;16.50;74.15;99692.84;5049664;28;20234;-76
2023/04/03 08:09:20;;;;;;;0.60;0.60;;;;;;;16.73;74.52;99700.41;5050371;28;20231;-78
2023/04/03 08:11:46;;;;;;;0.70;0.70;;;;;;;16.88;75.31;99700.13;5015640;28;20231;-76
2023/04/03 08:14:18;;;;;;;0.70;0.70;;;;;;;17.10;72.58;99696.25;5050606;28;20716;-76
2023/04/03 08:16:46;;;;;;;0.70;0.70;;;;;;;16.91;71.50;99668.63;5050447;28;20199;-76
2023/04/03 08:19:15;;;;;;;0.70;0.70;;;;;;;17.08;70.73;99694.56;5050502;28;20235;-76
2023/04/03 08:21:42;;;;;;;0.70;0.70;;;;;;;17.20;70.57;99689.94;5050910;28;20283;-77
2023/04/03 08:24:09;;;;;;;0.80;0.80;;;;;;;17.15;69.69;99683.09;5051172;28;20265;-78
2023/04/03 08:26:38;;;;;;;0.73;0.73;;;;;;;17.22;70.83;99677.72;5051405;28;20608;-78
2023/04/03 08:29:05;;;;;;;0.65;0.65;;;;;;;17.44;73.00;99672.06;5050628;28;20226;-77
2023/04/03 08:31:32;;;;;;;0.77;0.77;;;;;;;17.82;68.50;99677.44;5015631;28;20231;-76
2023/04/03 08:33:59;;;;;;;0.70;0.70;;;;;;;18.04;67.56;99678.69;5050902;28;20208;-76
2023/04/03 08:36:27;;;;;;;0.68;0.68;;;;;;;17.77;65.43;99659.16;5047191;28;20200;-78
2023/04/03 08:38:55;;;;;;;0.70;0.70;;;;;;;18.19;65.00;99672.25;5054173;28;20545;-77
2023/04/03 08:41:31;;;;;;;0.70;0.70;;;;;;;18.47;63.01;99678.59;5054127;28;20238;-77
2023/04/03 08:44:17;;;;;;;0.70;0.70;;;;;;;18.16;63.18;99673.16;5040955;28;20203;-76
2023/04/03 08:47:09;;;;;;;0.57;0.57;;;;;;;18.60;63.81;99694.94;5049799;28;20282;-78
2023/04/03 08:49:46;;;;;;;0.70;0.70;;;;;;;18.19;62.60;99662.59;5018957;28;20227;-78
2023/04/03 08:52:16;;;;;;;0.70;0.70;;;;;;;18.52;61.83;99681.13;5053158;28;20235;-79
2023/04/03 08:54:51;;;;;;;0.80;0.80;;;;;;;18.83;61.49;99645.34;5053817;28;20203;-79
2023/04/03 08:57:21;;;;;;;0.70;0.70;;;;;;;19.10;59.52;99675.31;5054083;28;20676;-79
2023/04/03 08:59:49;;;;;;;0.60;0.60;;;;;;;19.16;59.28;99673.38;5053976;28;20227;-78
2023/04/03 09:02:26;;;;;;;0.70;0.70;;;;;;;18.61;61.53;99660.78;5053790;28;20203;-77
2023/04/03 09:04:53;;;;;;;0.70;0.70;;;;;;;18.29;62.19;99658.88;5004550;28;20204;-76
2023/04/03 09:07:26;;;;;;;0.75;0.75;;;;;;;18.29;62.97;99637.91;5053424;28;20203;-76
2023/04/03 09:09:53;;;;;;;0.60;0.60;;;;;;;18.48;62.29;99653.22;5053028;28;20231;-77
2023/04/03 09:12:25;;;;;;;0.70;0.70;;;;;;;18.66;61.33;99663.28;5053179;28;20218;-76
2023/04/03 09:15:02;;;;;;;0.70;0.70;;;;;;;18.84;60.31;99660.19;5053111;28;20218;-74
2023/04/03 09:17:41;;;;;;;0.70;0.70;;;;;;;19.17;59.62;99659.34;5034648;28;20593;-76
2023/04/03 09:20:18;;;;;;;0.70;0.70;;;;;;;19.15;58.75;99674.28;5052929;28;20206;-75
2023/04/03 09:22:45;;;;;;;0.70;0.70;;;;;;;18.91;59.12;99667.03;5053517;28;20203;-76
2023/04/03 09:25:16;;;;;;;0.60;0.60;;;;;;;19.22;57.95;99654.81;5053662;28;20210;-77
2023/04/03 09:27:43;;;;;;;0.73;0.73;;;;;;;18.69;58.58;99663.22;5053222;28;20614;-75
2023/04/03 09:30:16;;;;;;;0.68;0.68;;;;;;;19.27;57.89;99675.72;5054355;28;20227;-75
2023/04/03 09:32:45;;;;;;;0.70;0.70;;;;;;;19.27;56.81;99673.94;5052879;28;20601;-76
2023/04/03 09:35:20;;;;;;;0.63;0.63;;;;;;;19.21;57.10;99657.47;5017624;28;20207;-76
2023/04/03 09:37:48;;;;;;;0.70;0.70;;;;;;;19.14;57.57;99664.69;5039745;28;20195;-76
2023/04/03 09:40:38;;;;;;;0.60;0.60;;;;;;;19.43;56.51;99665.69;5052803;28;20203;-77
2023/04/03 09:43:22;;;;;;;0.70;0.70;;;;;;;19.13;56.85;99648.94;5042356;28;20679;-77
2023/04/03 09:45:51;;;;;;;0.80;0.80;;;;;;;18.84;58.60;99657.56;5052441;28;20690;-75
2023/04/03 09:48:20;;;;;;;0.70;0.70;;;;;;;19.49;56.55;99657.63;5051941;28;20671;-76
2023/04/03 09:50:58;;;;;;;0.70;0.70;;;;;;;19.40;55.90;99621.91;5017464;28;20224;-77
2023/04/03 09:53:35;;;;;;;0.70;0.70;;;;;;;19.73;55.19;99647.25;5052096;28;20207;-76
2023/04/03 09:56:04;;;;;;;0.60;0.60;;;;;;;19.42;57.30;99635.03;5052187;28;20301;-75
2023/04/03 09:58:34;;;;;;;0.70;0.70;;;;;;;18.60;60.57;99650.31;5052166;28;20199;-77
2023/04/03 10:01:04;;;;;;;0.70;0.70;;;;;;;17.99;64.52;99641.19;5052278;28;20284;-77
2023/04/03 10:03:34;;;;;;;0.70;0.70;;;;;;;18.58;64.98;99652.13;5017323;28;20207;-76
2023/04/03 10:06:02;;;;;;;0.70;0.70;;;;;;;18.81;63.28;99641.88;5051969;28;20265;-76
2023/04/03 10:08:31;;;;;;;0.70;0.70;;;;;;;18.68;62.94;99643.09;5052408;28;20204;-78
2023/04/03 10:11:11;;;;;;;1.42;1.42;;;;;;;18.25;67.94;99635.38;5051832;28;20223;-79
2023/04/03 10:13:51;;;;;;;0.80;0.80;;;;;;;18.50;64.04;99636.50;5051640;28;20203;-74
2023/04/03 10:16:27;;;;;;;0.70;0.70;;;;;;;19.10;61.87;99649.88;5051432;28;20666;-76
2023/04/03 10:19:07;;;;;;;0.70;0.70;;;;;;;18.81;63.63;99637.50;5016788;28;20295;-74
2023/04/03 10:21:45;;;;;;;0.70;0.70;;;;;;;18.57;65.94;99643.38;5039114;28;20602;-77
2023/04/03 10:24:17;;;;;;;0.70;0.70;;;;;;;18.94;62.59;99632.78;5016580;28;20207;-76
2023/04/03 10:26:53;;;;;;;0.70;0.70;;;;;;;18.84;61.80;99633.94;5051830;28;20597;-75
2023/04/03 10:29:35;;;;;;;0.65;0.65;;;;;;;18.99;61.95;99645.81;5051953;28;20195;-77
2023/04/03 10:32:26;;;;;;;0.80;0.80;;;;;;;18.05;62.65;99556.25;5051739;28;20311;-76
2023/04/03 10:35:00;;;;;;;0.80;0.80;;;;;;;18.42;63.52;99637.59;5048996;28;20282;-75
2023/04/03 10:37:36;;;;;;;0.82;0.82;;;;;;;18.28;64.07;99599.41;5034006;28;20194;-76
2023/04/03 10:40:24;;;;;;;1.00;1.00;;;;;;;18.83;63.33;99633.97;5051733;28;20305;-77
2023/04/03 10:42:57;;;;;;;0.63;0.63;;;;;;;18.73;62.83;99628.06;5051768;28;20207;-77
2023/04/03 10:45:29;;;;;;;0.65;0.65;;;;;;;18.70;63.07;99630.78;5051805;28;20207;-76
2023/04/03 10:48:05;;;;;;;0.70;0.70;;;;;;;18.76;62.89;99633.28;5051653;28;20207;-75
2023/04/03 10:50:46;;;;;;;0.80;0.80;;;;;;;18.51;64.61;99632.16;5051637;28;20255;-77
2023/04/03 10:53:22;;;;;;;0.75;0.75;;;;;;;18.19;67.90;99622.41;5051412;28;20600;-77
2023/04/03 10:55:55;;;;;;;0.70;0.70;;;;;;;18.78;65.79;99615.72;5051181;28;20199;-77
2023/04/03 10:58:29;;;;;;;0.60;0.60;;;;;;;18.49;65.56;99594.53;5033674;28;20667;-76
2023/04/03 11:01:02;;;;;;;0.70;0.70;;;;;;;18.60;65.54;99616.16;5050308;28;20235;-75
2023/04/03 11:03:36;;;;;;;0.70;0.70;;;;;;;18.61;66.90;99613.53;5051305;28;20191;-77
2023/04/03 11:06:07;;;;;;;0.73;0.73;;;;;;;18.47;67.27;99604.22;5051226;28;20197;-77
2023/04/03 11:08:44;;;;;;;0.90;0.90;;;;;;;18.82;64.78;99593.72;5051075;28;20207;-76
2023/04/03 11:11:14;;;;;;;0.70;0.70;;;;;;;18.85;64.62;99601.50;5051178;28;20226;-76
2023/04/03 11:13:46;;;;;;;1.10;1.10;;;;;;;18.89;64.40;99595.28;5051308;28;20670;-76
2023/04/03 11:16:18;;;;;;;1.27;1.27;;;;;;;18.79;63.78;99586.78;5050864;28;20701;-77
2023/04/03 11:18:50;;;;;;;0.70;0.70;;;;;;;18.85;63.30;99577.88;5051218;28;20203;-76
2023/04/03 11:21:22;;;;;;;0.60;0.60;;;;;;;19.15;62.91;99584.06;5051120;28;20210;-76
2023/04/03 11:23:52;;;;;;;0.70;0.70;;;;;;;18.66;63.51;99587.13;5051053;28;20261;-77
2023/04/03 11:26:22;;;;;;;0.80;0.80;;;;;;;18.77;63.63;99585.06;5050895;28;20199;-77
2023/04/03 11:28:53;;;;;;;0.80;0.80;;;;;;;18.53;63.75;99547.19;5050910;28;20214;-77
2023/04/03 11:31:49;;;;;;;0.70;0.70;;;;;;;18.56;64.74;99572.50;5050831;28;20230;-77
2023/04/03 11:34:29;;;;;;;0.70;0.70;;;;;;;19.28;63.08;99560.00;5009413;28;20208;-77
2023/04/03 11:37:00;;;;;;;0.75;0.75;;;;;;;19.56;60.29;99560.09;5009179;28;20208;-77
2023/04/03 11:39:29;;;;;;;0.70;0.70;;;;;;;19.69;59.60;99556.19;5009088;28;20295;-76